Holder, Illinois
Current Conditions -  °F | °C
As of 10:15 PM on Sunday 23 Nov 2014 (Local Time) from KBMI Reporting Station
Light Rain Light Rain  
Wind Chill: 45°   Ceiling: 100
Heat Index: 48°   Visibility: 0.75mi
Dew Point: 48°   Wind: 8mph
Humidity: 100%   Direction: 230°SW
Pressure: 29.18"   Gusts: NA
Location:  40.3412°N, 88.8634°W
Report Text: KBMI 240415Z AUTO 23007KT 3/4SM R29/4500VP6000FT -RA BR OVC001 09/09 A2918 RMK AO2 P0000
Loading
Personal Weather Stations






























Interactive Weather Map New forecast layout! Learn more

10-Day Weather Forecast

Advertisements
Track Severe Weather on mobile